Time,TemperatureF,DewpointF,PressureIn,WindDirection,WindDirectionDegrees,WindSpeedMPH,WindSpeedGustMPH,Humidity,HourlyPrecipIn,Conditions,Clouds,dailyrainin,SoftwareType,DateUTC
2019-04-26 00:45:43,53.7,51.0,29.97,NNW,342,0.0,1.0,91,0.01,,,0.01,weatherlink.com 1.10,2019-04-25 22:45:43,
2019-04-26 01:00:44,53.6,51.0,29.97,NNW,342,0.0,1.0,91,0.02,,,0.02,weatherlink.com 1.10,2019-04-25 23:00:44,
2019-04-26 01:15:45,53.5,51.0,29.97,NE,55,0.0,3.0,91,0.01,,,0.02,weatherlink.com 1.10,2019-04-25 23:15:45,
2019-04-26 01:30:46,53.7,51.0,29.97,NNE,30,0.0,7.0,91,0.02,,,0.02,weatherlink.com 1.10,2019-04-25 23:30:46,
2019-04-26 02:00:49,53.9,52.0,29.96,NW,319,0.0,5.0,92,0.03,,,0.05,weatherlink.com 1.10,2019-04-26 00:00:49,
2019-04-26 02:15:50,54.0,52.0,29.97,North,350,3.0,6.0,92,0.03,,,0.05,weatherlink.com 1.10,2019-04-26 00:15:50,
2019-04-26 02:45:52,54.2,52.0,29.95,ENE,68,1.0,3.0,92,0.01,,,0.05,weatherlink.com 1.10,2019-04-26 00:45:52,
2019-04-26 03:15:58,54.4,52.0,29.95,NW,319,1.0,4.0,92,0.00,,,0.05,weatherlink.com 1.10,2019-04-26 01:15:58,
2019-04-26 03:30:59,54.6,52.0,29.94,ENE,70,0.0,5.0,92,0.00,,,0.05,weatherlink.com 1.10,2019-04-26 01:30:59,
2019-04-26 03:45:00,54.6,52.0,29.93,North,349,0.0,2.0,92,0.01,,,0.06,weatherlink.com 1.10,2019-04-26 01:45:00,
2019-04-26 04:00:03,54.5,52.0,29.93,ENE,67,1.0,4.0,92,0.01,,,0.06,weatherlink.com 1.10,2019-04-26 02:00:03,
2019-04-26 04:15:03,54.5,52.0,29.93,North,359,0.0,2.0,92,0.01,,,0.06,weatherlink.com 1.10,2019-04-26 02:15:03,
2019-04-26 04:30:05,54.5,52.0,29.92,North,351,3.0,3.0,92,0.01,,,0.06,weatherlink.com 1.10,2019-04-26 02:30:05,
2019-04-26 04:45:08,54.5,52.0,29.91,ENE,75,0.0,1.0,92,0.00,,,0.06,weatherlink.com 1.10,2019-04-26 02:45:08,
2019-04-26 05:00:10,54.4,52.0,29.91,NE,46,0.0,1.0,92,0.00,,,0.06,weatherlink.com 1.10,2019-04-26 03:00:10,
2019-04-26 05:15:12,54.2,52.0,29.90,NE,41,0.0,4.0,92,0.00,,,0.06,weatherlink.com 1.10,2019-04-26 03:15:12,
2019-04-26 05:30:16,54.0,52.0,29.90,NNE,18,0.0,4.0,92,0.00,,,0.06,weatherlink.com 1.10,2019-04-26 03:30:16,
2019-04-26 05:45:15,54.0,52.0,29.90,East,91,0.0,1.0,92,0.00,,,0.06,weatherlink.com 1.10,2019-04-26 03:45:15,
2019-04-26 06:00:16,53.8,52.0,29.90,North,8,1.0,2.0,92,0.00,,,0.06,weatherlink.com 1.10,2019-04-26 04:00:16,
2019-04-26 06:15:16,54.1,52.0,29.90,North,358,7.0,7.0,92,0.00,,,0.06,weatherlink.com 1.10,2019-04-26 04:15:16,
2019-04-26 06:30:17,54.3,52.0,29.90,NE,51,0.0,4.0,92,0.00,,,0.06,weatherlink.com 1.10,2019-04-26 04:30:17,
2019-04-26 06:45:17,54.3,52.0,29.91,ENE,72,0.0,4.0,92,0.00,,,0.06,weatherlink.com 1.10,2019-04-26 04:45:17,
2019-04-26 07:00:18,54.3,52.0,29.91,NE,47,0.0,4.0,92,0.00,,,0.06,weatherlink.com 1.10,2019-04-26 05:00:18,
2019-04-26 07:15:19,54.3,52.0,29.91,NNE,33,2.0,5.0,92,0.00,,,0.06,weatherlink.com 1.10,2019-04-26 05:15:19,
2019-04-26 07:30:20,54.5,52.0,29.91,NE,47,1.0,4.0,92,0.00,,,0.06,weatherlink.com 1.10,2019-04-26 05:30:20,
2019-04-26 07:45:21,54.5,52.0,29.91,NE,55,2.0,5.0,92,0.00,,,0.06,weatherlink.com 1.10,2019-04-26 05:45:21,
2019-04-26 08:00:23,54.6,52.0,29.91,North,6,1.0,5.0,92,0.00,,,0.06,weatherlink.com 1.10,2019-04-26 06:00:23,
2019-04-26 08:15:23,54.8,53.0,29.91,ENE,58,3.0,5.0,92,0.00,,,0.06,weatherlink.com 1.10,2019-04-26 06:15:23,
2019-04-26 08:30:24,54.8,53.0,29.90,NE,37,2.0,4.0,92,0.00,,,0.06,weatherlink.com 1.10,2019-04-26 06:30:24,
2019-04-26 08:45:25,55.0,53.0,29.90,ENE,68,1.0,6.0,92,0.00,,,0.06,weatherlink.com 1.10,2019-04-26 06:45:25,
2019-04-26 09:00:27,55.4,53.0,29.90,North,8,0.0,4.0,92,0.00,,,0.06,weatherlink.com 1.10,2019-04-26 07:00:27,
2019-04-26 09:15:30,55.6,53.0,29.90,SE,125,4.0,4.0,92,0.00,,,0.06,weatherlink.com 1.10,2019-04-26 07:15:30,
2019-04-26 09:30:30,56.1,54.0,29.90,North,352,0.0,2.0,92,0.00,,,0.06,weatherlink.com 1.10,2019-04-26 07:30:30,
2019-04-26 09:45:32,56.5,54.0,29.90,ESE,114,2.0,4.0,90,0.00,,,0.06,weatherlink.com 1.10,2019-04-26 07:45:32,
2019-04-26 10:00:35,57.4,54.0,29.90,ENE,66,1.0,4.0,89,0.00,,,0.06,weatherlink.com 1.10,2019-04-26 08:00:35,
2019-04-26 10:15:36,57.5,54.0,29.90,ENE,58,2.0,5.0,89,0.00,,,0.06,weatherlink.com 1.10,2019-04-26 08:15:36,
2019-04-26 10:30:36,57.1,54.0,29.90,East,85,0.0,7.0,89,0.00,,,0.06,weatherlink.com 1.10,2019-04-26 08:30:36,
2019-04-26 10:45:37,58.0,55.0,29.89,NE,50,1.0,2.0,89,0.00,,,0.06,weatherlink.com 1.10,2019-04-26 08:45:37,
2019-04-26 11:15:45,59.6,56.0,29.89,ENE,60,0.0,5.0,88,0.00,,,0.06,weatherlink.com 1.10,2019-04-26 09:15:45,
2019-04-26 11:30:47,60.0,57.0,29.89,ENE,78,0.0,5.0,88,0.00,,,0.06,weatherlink.com 1.10,2019-04-26 09:30:47,
2019-04-26 13:30:56,56.5,53.0,29.89,SW,233,3.0,10.0,88,0.06,,,0.12,weatherlink.com 1.10,2019-04-26 11:30:56,
2019-04-26 14:00:59,56.1,53.0,29.88,SSW,210,2.0,6.0,89,0.09,,,0.14,weatherlink.com 1.10,2019-04-26 12:00:59,
2019-04-26 14:15:00,57.0,54.0,29.88,SSE,153,4.0,5.0,89,0.08,,,0.14,weatherlink.com 1.10,2019-04-26 12:15:00,
2019-04-26 14:30:01,57.6,55.0,29.88,SE,128,0.0,7.0,90,0.02,,,0.14,weatherlink.com 1.10,2019-04-26 12:30:01,
2019-04-26 14:45:01,57.2,54.0,29.87,SSE,150,0.0,6.0,89,0.01,,,0.14,weatherlink.com 1.10,2019-04-26 12:45:01,
2019-04-26 15:00:04,58.2,55.0,29.86,NNW,332,2.0,4.0,90,0.00,,,0.14,weatherlink.com 1.10,2019-04-26 13:00:04,